Terminal Aerodrome Forecast
Issued by NWS Twin Cities, MN

Home | Current Version | Previous Version | Graphics & Text | Print | Product List | Glossary On
Versions: 1 2 3 4 5 6 7 8 9 10 11 12 13 14 15 16 17 18 19 20 21 22 23 24 25 26
000
FTUS43 KMPX 251453 AAB
TAFMSP
TAF AMD
KMSP 251453Z 2515/2618 25012KT P6SM FEW030 SCT150
     FM251700 27015G22KT P6SM BKN025 OVC040
     FM260200 29012KT P6SM OVC050=

USA.gov is the U.S. government's official web portal to all federal, state and local government web resources and services.